sensor_id;sensor_type;location;lat;lon;timestamp;P1;durP1;ratioP1;P2;durP2;ratioP2
19887;SDS011;10106;51.332;12.336;2022-08-19T00:01:27;22.57;;;12.60;;
19887;SDS011;10106;51.332;12.336;2022-08-19T00:03:54;19.90;;;12.93;;
19887;SDS011;10106;51.332;12.336;2022-08-19T00:06:24;22.00;;;12.27;;
19887;SDS011;10106;51.332;12.336;2022-08-19T00:08:51;22.57;;;11.40;;
19887;SDS011;10106;51.332;12.336;2022-08-19T00:11:17;18.60;;;10.97;;
19887;SDS011;10106;51.332;12.336;2022-08-19T00:13:43;27.50;;;13.37;;
19887;SDS011;10106;51.332;12.336;2022-08-19T00:16:10;22.67;;;11.63;;
19887;SDS011;10106;51.332;12.336;2022-08-19T00:18:36;19.03;;;10.70;;
19887;SDS011;10106;51.332;12.336;2022-08-19T00:21:02;22.83;;;12.30;;
19887;SDS011;10106;51.332;12.336;2022-08-19T00:23:33;19.70;;;11.83;;
19887;SDS011;10106;51.332;12.336;2022-08-19T00:26:01;24.77;;;12.80;;
19887;SDS011;10106;51.332;12.336;2022-08-19T00:28:28;21.10;;;12.03;;
19887;SDS011;10106;51.332;12.336;2022-08-19T00:30:55;25.67;;;13.00;;
19887;SDS011;10106;51.332;12.336;2022-08-19T00:33:21;23.90;;;13.10;;
19887;SDS011;10106;51.332;12.336;2022-08-19T00:35:46;23.80;;;13.20;;
19887;SDS011;10106;51.332;12.336;2022-08-19T00:38:13;23.47;;;12.90;;
19887;SDS011;10106;51.332;12.336;2022-08-19T00:40:39;21.60;;;12.80;;
19887;SDS011;10106;51.332;12.336;2022-08-19T00:43:08;24.50;;;13.70;;
19887;SDS011;10106;51.332;12.336;2022-08-19T00:45:35;24.53;;;14.37;;
19887;SDS011;10106;51.332;12.336;2022-08-19T00:48:01;23.23;;;13.23;;
19887;SDS011;10106;51.332;12.336;2022-08-19T00:50:29;22.40;;;12.80;;
19887;SDS011;10106;51.332;12.336;2022-08-19T00:52:55;25.40;;;13.20;;
19887;SDS011;10106;51.332;12.336;2022-08-19T00:55:23;25.63;;;13.67;;
19887;SDS011;10106;51.332;12.336;2022-08-19T00:57:55;23.67;;;13.93;;
19887;SDS011;10106;51.332;12.336;2022-08-19T01:00:24;25.67;;;14.13;;
19887;SDS011;10106;51.332;12.336;2022-08-19T01:02:51;25.57;;;13.90;;
19887;SDS011;10106;51.332;12.336;2022-08-19T01:05:20;21.97;;;12.60;;
19887;SDS011;10106;51.332;12.336;2022-08-19T01:07:52;22.07;;;13.00;;
19887;SDS011;10106;51.332;12.336;2022-08-19T01:10:20;20.07;;;13.67;;
19887;SDS011;10106;51.332;12.336;2022-08-19T01:12:49;20.83;;;12.87;;
19887;SDS011;10106;51.332;12.336;2022-08-19T01:15:18;22.60;;;12.47;;
19887;SDS011;10106;51.332;12.336;2022-08-19T01:17:47;28.90;;;15.77;;
19887;SDS011;10106;51.332;12.336;2022-08-19T01:20:16;24.37;;;14.93;;
19887;SDS011;10106;51.332;12.336;2022-08-19T01:22:46;22.10;;;12.97;;
19887;SDS011;10106;51.332;12.336;2022-08-19T01:25:15;25.23;;;14.33;;
19887;SDS011;10106;51.332;12.336;2022-08-19T01:27:45;26.20;;;14.37;;
19887;SDS011;10106;51.332;12.336;2022-08-19T01:30:18;23.40;;;13.83;;
19887;SDS011;10106;51.332;12.336;2022-08-19T01:32:47;22.67;;;13.03;;
19887;SDS011;10106;51.332;12.336;2022-08-19T01:35:13;23.90;;;13.90;;
19887;SDS011;10106;51.332;12.336;2022-08-19T01:37:43;30.73;;;15.90;;
19887;SDS011;10106;51.332;12.336;2022-08-19T01:40:14;26.10;;;14.27;;
19887;SDS011;10106;51.332;12.336;2022-08-19T01:42:41;25.70;;;14.70;;
19887;SDS011;10106;51.332;12.336;2022-08-19T01:45:07;33.03;;;15.00;;
19887;SDS011;10106;51.332;12.336;2022-08-19T01:47:37;26.17;;;14.67;;
19887;SDS011;10106;51.332;12.336;2022-08-19T01:50:04;25.30;;;13.67;;
19887;SDS011;10106;51.332;12.336;2022-08-19T01:52:34;28.03;;;15.67;;
19887;SDS011;10106;51.332;12.336;2022-08-19T01:55:00;29.03;;;16.07;;
19887;SDS011;10106;51.332;12.336;2022-08-19T01:57:26;29.20;;;16.43;;
19887;SDS011;10106;51.332;12.336;2022-08-19T01:59:52;25.20;;;14.33;;
19887;SDS011;10106;51.332;12.336;2022-08-19T02:02:18;26.80;;;13.20;;
19887;SDS011;10106;51.332;12.336;2022-08-19T02:04:44;26.30;;;15.30;;
19887;SDS011;10106;51.332;12.336;2022-08-19T02:07:10;28.70;;;14.47;;
19887;SDS011;10106;51.332;12.336;2022-08-19T02:09:37;25.37;;;13.60;;
19887;SDS011;10106;51.332;12.336;2022-08-19T02:12:03;27.60;;;14.87;;
19887;SDS011;10106;51.332;12.336;2022-08-19T02:14:29;31.07;;;16.60;;
19887;SDS011;10106;51.332;12.336;2022-08-19T02:16:55;28.03;;;15.57;;
19887;SDS011;10106;51.332;12.336;2022-08-19T02:19:21;26.40;;;15.33;;
19887;SDS011;10106;51.332;12.336;2022-08-19T02:21:47;28.90;;;15.27;;
19887;SDS011;10106;51.332;12.336;2022-08-19T02:24:12;34.60;;;15.77;;
19887;SDS011;10106;51.332;12.336;2022-08-19T02:26:38;26.97;;;14.93;;
19887;SDS011;10106;51.332;12.336;2022-08-19T02:29:04;32.37;;;16.80;;
19887;SDS011;10106;51.332;12.336;2022-08-19T02:31:30;30.03;;;15.60;;
19887;SDS011;10106;51.332;12.336;2022-08-19T02:33:56;34.83;;;16.67;;
19887;SDS011;10106;51.332;12.336;2022-08-19T02:36:22;30.73;;;15.90;;
19887;SDS011;10106;51.332;12.336;2022-08-19T02:38:49;30.90;;;16.30;;
19887;SDS011;10106;51.332;12.336;2022-08-19T02:41:19;29.20;;;16.20;;
19887;SDS011;10106;51.332;12.336;2022-08-19T02:43:46;32.53;;;17.03;;
19887;SDS011;10106;51.332;12.336;2022-08-19T02:46:14;33.00;;;16.67;;
19887;SDS011;10106;51.332;12.336;2022-08-19T02:48:47;32.43;;;15.60;;
19887;SDS011;10106;51.332;12.336;2022-08-19T02:51:18;28.37;;;16.13;;
19887;SDS011;10106;51.332;12.336;2022-08-19T02:53:44;28.33;;;16.10;;
19887;SDS011;10106;51.332;12.336;2022-08-19T02:56:10;33.57;;;16.00;;
19887;SDS011;10106;51.332;12.336;2022-08-19T02:58:36;29.53;;;16.63;;
19887;SDS011;10106;51.332;12.336;2022-08-19T03:01:02;26.40;;;15.83;;
19887;SDS011;10106;51.332;12.336;2022-08-19T03:03:28;26.87;;;13.37;;
19887;SDS011;10106;51.332;12.336;2022-08-19T03:06:07;25.13;;;14.33;;
19887;SDS011;10106;51.332;12.336;2022-08-19T03:08:36;25.00;;;15.23;;
19887;SDS011;10106;51.332;12.336;2022-08-19T03:11:02;24.53;;;14.97;;
19887;SDS011;10106;51.332;12.336;2022-08-19T03:13:28;24.40;;;14.00;;
19887;SDS011;10106;51.332;12.336;2022-08-19T03:15:54;23.90;;;14.97;;
19887;SDS011;10106;51.332;12.336;2022-08-19T03:18:20;28.53;;;16.43;;
19887;SDS011;10106;51.332;12.336;2022-08-19T03:20:50;25.70;;;16.03;;
19887;SDS011;10106;51.332;12.336;2022-08-19T03:23:19;28.33;;;14.90;;
19887;SDS011;10106;51.332;12.336;2022-08-19T03:25:47;27.83;;;15.77;;
19887;SDS011;10106;51.332;12.336;2022-08-19T03:28:14;24.37;;;14.40;;
19887;SDS011;10106;51.332;12.336;2022-08-19T03:30:41;20.00;;;12.90;;
19887;SDS011;10106;51.332;12.336;2022-08-19T03:33:09;20.00;;;13.67;;
19887;SDS011;10106;51.332;12.336;2022-08-19T03:35:36;20.90;;;13.10;;
19887;SDS011;10106;51.332;12.336;2022-08-19T03:38:05;23.60;;;13.70;;
19887;SDS011;10106;51.332;12.336;2022-08-19T03:40:32;23.37;;;13.67;;
19887;SDS011;10106;51.332;12.336;2022-08-19T03:42:59;25.70;;;14.10;;
19887;SDS011;10106;51.332;12.336;2022-08-19T03:45:25;20.37;;;12.87;;
19887;SDS011;10106;51.332;12.336;2022-08-19T03:47:52;20.60;;;13.07;;
19887;SDS011;10106;51.332;12.336;2022-08-19T03:50:18;19.67;;;11.67;;
19887;SDS011;10106;51.332;12.336;2022-08-19T03:52:47;22.37;;;13.13;;
19887;SDS011;10106;51.332;12.336;2022-08-19T03:55:15;22.07;;;13.17;;
19887;SDS011;10106;51.332;12.336;2022-08-19T03:57:40;20.83;;;13.53;;
19887;SDS011;10106;51.332;12.336;2022-08-19T04:00:06;21.07;;;13.10;;
19887;SDS011;10106;51.332;12.336;2022-08-19T04:02:32;19.43;;;13.40;;
19887;SDS011;10106;51.332;12.336;2022-08-19T04:04:58;19.57;;;12.60;;
19887;SDS011;10106;51.332;12.336;2022-08-19T04:07:24;21.47;;;13.50;;
19887;SDS011;10106;51.332;12.336;2022-08-19T04:09:49;24.10;;;12.30;;
19887;SDS011;10106;51.332;12.336;2022-08-19T04:12:16;17.97;;;11.90;;
19887;SDS011;10106;51.332;12.336;2022-08-19T04:14:42;18.57;;;11.63;;
19887;SDS011;10106;51.332;12.336;2022-08-19T04:17:08;20.43;;;13.10;;
19887;SDS011;10106;51.332;12.336;2022-08-19T04:19:34;23.57;;;12.83;;
19887;SDS011;10106;51.332;12.336;2022-08-19T04:22:02;22.83;;;13.60;;
19887;SDS011;10106;51.332;12.336;2022-08-19T04:24:28;26.93;;;14.30;;
19887;SDS011;10106;51.332;12.336;2022-08-19T04:26:54;21.93;;;14.33;;
19887;SDS011;10106;51.332;12.336;2022-08-19T04:29:29;22.87;;;14.00;;
19887;SDS011;10106;51.332;12.336;2022-08-19T04:31:55;26.53;;;14.93;;
19887;SDS011;10106;51.332;12.336;2022-08-19T04:34:22;27.30;;;14.63;;
19887;SDS011;10106;51.332;12.336;2022-08-19T04:36:50;25.23;;;15.23;;
19887;SDS011;10106;51.332;12.336;2022-08-19T04:39:19;25.17;;;15.00;;
19887;SDS011;10106;51.332;12.336;2022-08-19T04:41:48;26.90;;;15.50;;
19887;SDS011;10106;51.332;12.336;2022-08-19T04:44:33;27.07;;;16.50;;
19887;SDS011;10106;51.332;12.336;2022-08-19T04:47:00;29.07;;;17.07;;
19887;SDS011;10106;51.332;12.336;2022-08-19T04:49:28;28.70;;;15.80;;
19887;SDS011;10106;51.332;12.336;2022-08-19T04:51:55;30.20;;;17.03;;
19887;SDS011;10106;51.332;12.336;2022-08-19T04:54:21;27.63;;;16.50;;
19887;SDS011;10106;51.332;12.336;2022-08-19T04:56:50;25.90;;;15.37;;
19887;SDS011;10106;51.332;12.336;2022-08-19T04:59:18;29.30;;;16.70;;
19887;SDS011;10106;51.332;12.336;2022-08-19T05:06:55;28.97;;;14.90;;
19887;SDS011;10106;51.332;12.336;2022-08-19T05:09:21;30.30;;;15.00;;
19887;SDS011;10106;51.332;12.336;2022-08-19T05:11:47;26.20;;;15.23;;
19887;SDS011;10106;51.332;12.336;2022-08-19T05:14:15;25.73;;;14.07;;
19887;SDS011;10106;51.332;12.336;2022-08-19T05:16:41;25.90;;;15.60;;
19887;SDS011;10106;51.332;12.336;2022-08-19T05:19:07;27.07;;;16.10;;
19887;SDS011;10106;51.332;12.336;2022-08-19T05:21:51;27.57;;;16.73;;
19887;SDS011;10106;51.332;12.336;2022-08-19T05:24:36;28.47;;;16.07;;
19887;SDS011;10106;51.332;12.336;2022-08-19T05:27:02;34.87;;;18.40;;
19887;SDS011;10106;51.332;12.336;2022-08-19T05:29:30;31.97;;;18.30;;
19887;SDS011;10106;51.332;12.336;2022-08-19T05:31:59;33.90;;;17.13;;
19887;SDS011;10106;51.332;12.336;2022-08-19T05:34:26;31.43;;;17.13;;
19887;SDS011;10106;51.332;12.336;2022-08-19T05:36:56;33.47;;;17.70;;
19887;SDS011;10106;51.332;12.336;2022-08-19T05:39:27;34.90;;;17.87;;
19887;SDS011;10106;51.332;12.336;2022-08-19T05:41:55;26.93;;;16.87;;
19887;SDS011;10106;51.332;12.336;2022-08-19T05:44:27;42.93;;;18.10;;
19887;SDS011;10106;51.332;12.336;2022-08-19T05:46:56;32.40;;;18.50;;
19887;SDS011;10106;51.332;12.336;2022-08-19T05:49:27;30.10;;;17.80;;
19887;SDS011;10106;51.332;12.336;2022-08-19T05:51:53;32.57;;;18.20;;
19887;SDS011;10106;51.332;12.336;2022-08-19T05:54:19;34.57;;;18.80;;
19887;SDS011;10106;51.332;12.336;2022-08-19T05:56:46;36.23;;;19.70;;
19887;SDS011;10106;51.332;12.336;2022-08-19T05:59:12;34.47;;;16.93;;
19887;SDS011;10106;51.332;12.336;2022-08-19T06:01:41;31.73;;;18.93;;
19887;SDS011;10106;51.332;12.336;2022-08-19T06:04:08;29.87;;;17.70;;
19887;SDS011;10106;51.332;12.336;2022-08-19T06:06:34;34.20;;;18.47;;
19887;SDS011;10106;51.332;12.336;2022-08-19T06:09:05;32.10;;;18.83;;
19887;SDS011;10106;51.332;12.336;2022-08-19T06:11:37;33.37;;;19.20;;
19887;SDS011;10106;51.332;12.336;2022-08-19T06:14:10;43.23;;;17.80;;
19887;SDS011;10106;51.332;12.336;2022-08-19T06:16:39;34.53;;;18.53;;
19887;SDS011;10106;51.332;12.336;2022-08-19T06:19:07;34.13;;;19.77;;
19887;SDS011;10106;51.332;12.336;2022-08-19T06:21:38;31.90;;;17.83;;
19887;SDS011;10106;51.332;12.336;2022-08-19T06:24:06;41.77;;;21.10;;
19887;SDS011;10106;51.332;12.336;2022-08-19T06:26:35;32.67;;;18.13;;
19887;SDS011;10106;51.332;12.336;2022-08-19T06:29:03;37.40;;;19.57;;
19887;SDS011;10106;51.332;12.336;2022-08-19T06:31:32;33.63;;;20.07;;
19887;SDS011;10106;51.332;12.336;2022-08-19T06:33:59;35.07;;;19.17;;
19887;SDS011;10106;51.332;12.336;2022-08-19T06:36:32;41.10;;;19.67;;
19887;SDS011;10106;51.332;12.336;2022-08-19T06:39:22;34.80;;;18.43;;
19887;SDS011;10106;51.332;12.336;2022-08-19T06:41:50;35.40;;;19.47;;
19887;SDS011;10106;51.332;12.336;2022-08-19T06:44:18;40.00;;;19.20;;
19887;SDS011;10106;51.332;12.336;2022-08-19T06:46:45;38.10;;;19.50;;
19887;SDS011;10106;51.332;12.336;2022-08-19T06:49:11;42.17;;;20.07;;
19887;SDS011;10106;51.332;12.336;2022-08-19T06:51:39;33.67;;;19.53;;
19887;SDS011;10106;51.332;12.336;2022-08-19T06:54:10;32.73;;;17.97;;
19887;SDS011;10106;51.332;12.336;2022-08-19T06:56:36;33.60;;;18.97;;
19887;SDS011;10106;51.332;12.336;2022-08-19T06:59:08;34.53;;;18.40;;
19887;SDS011;10106;51.332;12.336;2022-08-19T07:01:46;37.90;;;18.07;;
19887;SDS011;10106;51.332;12.336;2022-08-19T07:04:18;34.80;;;18.63;;
19887;SDS011;10106;51.332;12.336;2022-08-19T07:06:47;38.47;;;18.17;;
19887;SDS011;10106;51.332;12.336;2022-08-19T07:09:15;40.93;;;18.03;;
19887;SDS011;10106;51.332;12.336;2022-08-19T07:11:46;34.63;;;18.87;;
19887;SDS011;10106;51.332;12.336;2022-08-19T07:14:14;40.27;;;19.57;;
19887;SDS011;10106;51.332;12.336;2022-08-19T07:16:42;42.47;;;18.60;;
19887;SDS011;10106;51.332;12.336;2022-08-19T07:19:10;38.50;;;17.47;;
19887;SDS011;10106;51.332;12.336;2022-08-19T07:21:36;36.30;;;18.67;;
19887;SDS011;10106;51.332;12.336;2022-08-19T07:24:02;31.63;;;17.23;;
19887;SDS011;10106;51.332;12.336;2022-08-19T07:26:29;33.10;;;17.13;;
19887;SDS011;10106;51.332;12.336;2022-08-19T07:28:57;32.47;;;18.23;;
19887;SDS011;10106;51.332;12.336;2022-08-19T07:31:26;32.67;;;18.50;;
19887;SDS011;10106;51.332;12.336;2022-08-19T07:33:53;34.67;;;15.90;;
19887;SDS011;10106;51.332;12.336;2022-08-19T07:36:21;31.83;;;17.33;;
19887;SDS011;10106;51.332;12.336;2022-08-19T07:38:49;33.77;;;16.90;;
19887;SDS011;10106;51.332;12.336;2022-08-19T07:41:19;28.83;;;17.00;;
19887;SDS011;10106;51.332;12.336;2022-08-19T07:43:46;33.40;;;17.30;;
19887;SDS011;10106;51.332;12.336;2022-08-19T07:46:13;32.87;;;17.73;;
19887;SDS011;10106;51.332;12.336;2022-08-19T07:48:40;35.90;;;17.27;;
19887;SDS011;10106;51.332;12.336;2022-08-19T07:51:08;33.63;;;16.83;;
19887;SDS011;10106;51.332;12.336;2022-08-19T07:53:35;26.23;;;15.80;;
19887;SDS011;10106;51.332;12.336;2022-08-19T07:56:02;26.23;;;14.00;;
19887;SDS011;10106;51.332;12.336;2022-08-19T07:58:30;29.70;;;15.30;;
19887;SDS011;10106;51.332;12.336;2022-08-19T08:00:58;27.03;;;16.00;;
19887;SDS011;10106;51.332;12.336;2022-08-19T08:03:24;27.17;;;16.17;;
19887;SDS011;10106;51.332;12.336;2022-08-19T08:06:11;33.97;;;15.20;;
19887;SDS011;10106;51.332;12.336;2022-08-19T08:08:57;27.67;;;15.23;;
19887;SDS011;10106;51.332;12.336;2022-08-19T08:11:45;27.07;;;15.07;;
19887;SDS011;10106;51.332;12.336;2022-08-19T08:14:21;30.37;;;15.37;;
19887;SDS011;10106;51.332;12.336;2022-08-19T08:16:59;27.57;;;15.00;;
19887;SDS011;10106;51.332;12.336;2022-08-19T08:19:26;27.90;;;14.70;;
19887;SDS011;10106;51.332;12.336;2022-08-19T08:21:56;25.40;;;14.90;;
19887;SDS011;10106;51.332;12.336;2022-08-19T08:24:24;24.03;;;14.30;;
19887;SDS011;10106;51.332;12.336;2022-08-19T08:26:51;23.00;;;14.00;;
19887;SDS011;10106;51.332;12.336;2022-08-19T08:29:17;28.10;;;15.40;;
19887;SDS011;10106;51.332;12.336;2022-08-19T08:31:44;24.97;;;14.97;;
19887;SDS011;10106;51.332;12.336;2022-08-19T08:34:11;28.97;;;13.60;;
19887;SDS011;10106;51.332;12.336;2022-08-19T08:36:39;24.10;;;14.13;;
19887;SDS011;10106;51.332;12.336;2022-08-19T08:39:11;23.20;;;13.40;;
19887;SDS011;10106;51.332;12.336;2022-08-19T08:41:53;24.60;;;14.20;;
19887;SDS011;10106;51.332;12.336;2022-08-19T08:44:43;23.67;;;14.70;;
19887;SDS011;10106;51.332;12.336;2022-08-19T08:47:22;29.73;;;15.17;;
19887;SDS011;10106;51.332;12.336;2022-08-19T08:49:59;37.97;;;15.57;;
19887;SDS011;10106;51.332;12.336;2022-08-19T08:52:36;27.53;;;15.13;;
19887;SDS011;10106;51.332;12.336;2022-08-19T08:55:14;25.70;;;14.23;;
19887;SDS011;10106;51.332;12.336;2022-08-19T08:57:49;27.60;;;15.80;;
19887;SDS011;10106;51.332;12.336;2022-08-19T09:00:25;26.30;;;15.13;;
19887;SDS011;10106;51.332;12.336;2022-08-19T09:02:54;25.70;;;14.67;;
19887;SDS011;10106;51.332;12.336;2022-08-19T09:05:21;25.27;;;14.43;;
19887;SDS011;10106;51.332;12.336;2022-08-19T09:08:06;21.57;;;13.30;;
19887;SDS011;10106;51.332;12.336;2022-08-19T09:10:39;29.77;;;13.90;;
19887;SDS011;10106;51.332;12.336;2022-08-19T09:16:09;25.37;;;14.03;;
19887;SDS011;10106;51.332;12.336;2022-08-19T09:18:50;25.47;;;14.63;;
19887;SDS011;10106;51.332;12.336;2022-08-19T09:21:20;34.97;;;14.60;;
19887;SDS011;10106;51.332;12.336;2022-08-19T09:23:47;26.57;;;14.07;;
19887;SDS011;10106;51.332;12.336;2022-08-19T09:26:18;22.57;;;13.70;;
19887;SDS011;10106;51.332;12.336;2022-08-19T09:28:46;24.70;;;13.87;;
19887;SDS011;10106;51.332;12.336;2022-08-19T09:31:18;26.60;;;14.80;;
19887;SDS011;10106;51.332;12.336;2022-08-19T09:33:50;26.07;;;14.13;;
19887;SDS011;10106;51.332;12.336;2022-08-19T09:36:18;27.07;;;14.20;;
19887;SDS011;10106;51.332;12.336;2022-08-19T09:38:49;19.77;;;12.37;;
19887;SDS011;10106;51.332;12.336;2022-08-19T09:41:19;30.83;;;14.57;;
19887;SDS011;10106;51.332;12.336;2022-08-19T09:43:48;25.97;;;14.00;;
19887;SDS011;10106;51.332;12.336;2022-08-19T09:46:17;25.17;;;13.50;;
19887;SDS011;10106;51.332;12.336;2022-08-19T09:48:46;21.83;;;13.73;;
19887;SDS011;10106;51.332;12.336;2022-08-19T09:51:14;28.73;;;14.43;;
19887;SDS011;10106;51.332;12.336;2022-08-19T09:53:44;19.77;;;12.13;;
19887;SDS011;10106;51.332;12.336;2022-08-19T09:56:12;21.20;;;12.40;;
19887;SDS011;10106;51.332;12.336;2022-08-19T09:58:38;23.13;;;13.60;;
19887;SDS011;10106;51.332;12.336;2022-08-19T10:01:05;19.50;;;11.87;;
19887;SDS011;10106;51.332;12.336;2022-08-19T10:03:32;25.07;;;11.30;;
19887;SDS011;10106;51.332;12.336;2022-08-19T10:06:00;23.00;;;13.37;;
19887;SDS011;10106;51.332;12.336;2022-08-19T10:08:29;18.17;;;11.30;;
19887;SDS011;10106;51.332;12.336;2022-08-19T10:11:00;17.77;;;11.33;;
19887;SDS011;10106;51.332;12.336;2022-08-19T10:13:28;17.10;;;10.10;;
19887;SDS011;10106;51.332;12.336;2022-08-19T10:16:07;19.33;;;11.10;;
19887;SDS011;10106;51.332;12.336;2022-08-19T10:18:35;17.63;;;11.70;;
19887;SDS011;10106;51.332;12.336;2022-08-19T10:21:10;22.03;;;11.90;;
19887;SDS011;10106;51.332;12.336;2022-08-19T10:23:39;16.93;;;11.60;;
19887;SDS011;10106;51.332;12.336;2022-08-19T10:26:11;18.47;;;11.60;;
19887;SDS011;10106;51.332;12.336;2022-08-19T10:28:41;14.07;;;9.23;;
19887;SDS011;10106;51.332;12.336;2022-08-19T10:31:11;14.47;;;9.67;;
19887;SDS011;10106;51.332;12.336;2022-08-19T10:33:39;14.57;;;9.90;;
19887;SDS011;10106;51.332;12.336;2022-08-19T10:36:09;14.67;;;8.50;;
19887;SDS011;10106;51.332;12.336;2022-08-19T10:38:43;14.50;;;9.63;;
19887;SDS011;10106;51.332;12.336;2022-08-19T10:41:18;14.73;;;10.27;;
19887;SDS011;10106;51.332;12.336;2022-08-19T10:43:53;16.53;;;9.30;;
19887;SDS011;10106;51.332;12.336;2022-08-19T10:46:34;15.10;;;9.73;;
19887;SDS011;10106;51.332;12.336;2022-08-19T10:49:04;74.13;;;44.13;;
19887;SDS011;10106;51.332;12.336;2022-08-19T10:51:31;20.30;;;8.47;;
19887;SDS011;10106;51.332;12.336;2022-08-19T10:54:16;13.67;;;8.67;;
19887;SDS011;10106;51.332;12.336;2022-08-19T10:56:49;17.17;;;9.13;;
19887;SDS011;10106;51.332;12.336;2022-08-19T10:59:25;18.50;;;9.60;;
19887;SDS011;10106;51.332;12.336;2022-08-19T11:01:57;15.33;;;10.07;;
19887;SDS011;10106;51.332;12.336;2022-08-19T11:04:26;18.27;;;8.87;;
19887;SDS011;10106;51.332;12.336;2022-08-19T11:07:01;12.93;;;7.73;;
19887;SDS011;10106;51.332;12.336;2022-08-19T11:09:28;15.53;;;8.40;;
19887;SDS011;10106;51.332;12.336;2022-08-19T11:11:54;16.73;;;7.70;;
19887;SDS011;10106;51.332;12.336;2022-08-19T11:14:21;12.47;;;8.00;;
19887;SDS011;10106;51.332;12.336;2022-08-19T11:16:57;12.40;;;7.00;;
19887;SDS011;10106;51.332;12.336;2022-08-19T11:19:23;10.43;;;8.13;;
19887;SDS011;10106;51.332;12.336;2022-08-19T11:22:12;13.37;;;7.40;;
19887;SDS011;10106;51.332;12.336;2022-08-19T11:24:38;12.20;;;6.90;;
19887;SDS011;10106;51.332;12.336;2022-08-19T11:27:05;19.73;;;7.37;;
19887;SDS011;10106;51.332;12.336;2022-08-19T11:29:34;17.13;;;7.63;;
19887;SDS011;10106;51.332;12.336;2022-08-19T11:32:05;14.60;;;7.67;;
19887;SDS011;10106;51.332;12.336;2022-08-19T11:34:35;16.10;;;7.77;;
19887;SDS011;10106;51.332;12.336;2022-08-19T11:37:05;12.53;;;7.57;;
19887;SDS011;10106;51.332;12.336;2022-08-19T11:39:37;10.23;;;7.20;;
19887;SDS011;10106;51.332;12.336;2022-08-19T11:42:04;13.60;;;6.63;;
19887;SDS011;10106;51.332;12.336;2022-08-19T11:44:51;16.23;;;7.70;;
19887;SDS011;10106;51.332;12.336;2022-08-19T11:47:17;9.63;;;7.57;;
19887;SDS011;10106;51.332;12.336;2022-08-19T11:49:43;9.50;;;6.90;;
19887;SDS011;10106;51.332;12.336;2022-08-19T11:52:13;11.03;;;7.07;;
19887;SDS011;10106;51.332;12.336;2022-08-19T11:54:48;9.07;;;6.73;;
19887;SDS011;10106;51.332;12.336;2022-08-19T11:57:14;9.57;;;7.40;;
19887;SDS011;10106;51.332;12.336;2022-08-19T11:59:55;11.53;;;8.27;;
19887;SDS011;10106;51.332;12.336;2022-08-19T12:02:21;11.30;;;8.10;;
19887;SDS011;10106;51.332;12.336;2022-08-19T12:04:48;11.40;;;7.40;;
19887;SDS011;10106;51.332;12.336;2022-08-19T12:07:20;11.27;;;7.10;;
19887;SDS011;10106;51.332;12.336;2022-08-19T12:09:46;8.43;;;6.20;;
19887;SDS011;10106;51.332;12.336;2022-08-19T12:12:12;11.47;;;6.73;;
19887;SDS011;10106;51.332;12.336;2022-08-19T12:14:38;9.50;;;6.53;;
19887;SDS011;10106;51.332;12.336;2022-08-19T12:17:04;9.57;;;7.23;;
19887;SDS011;10106;51.332;12.336;2022-08-19T12:19:32;8.10;;;6.60;;
19887;SDS011;10106;51.332;12.336;2022-08-19T12:22:00;9.83;;;6.30;;
19887;SDS011;10106;51.332;12.336;2022-08-19T12:24:29;9.30;;;7.00;;
19887;SDS011;10106;51.332;12.336;2022-08-19T12:26:56;15.10;;;7.00;;
19887;SDS011;10106;51.332;12.336;2022-08-19T12:29:23;9.50;;;7.67;;
19887;SDS011;10106;51.332;12.336;2022-08-19T12:31:54;8.67;;;5.93;;
19887;SDS011;10106;51.332;12.336;2022-08-19T12:34:26;9.40;;;6.67;;
19887;SDS011;10106;51.332;12.336;2022-08-19T12:36:57;12.73;;;7.03;;
19887;SDS011;10106;51.332;12.336;2022-08-19T12:39:24;8.50;;;6.03;;
19887;SDS011;10106;51.332;12.336;2022-08-19T12:41:51;13.30;;;7.50;;
19887;SDS011;10106;51.332;12.336;2022-08-19T12:44:17;12.27;;;7.60;;
19887;SDS011;10106;51.332;12.336;2022-08-19T12:46:43;17.00;;;8.50;;
19887;SDS011;10106;51.332;12.336;2022-08-19T12:49:09;19.33;;;8.67;;
19887;SDS011;10106;51.332;12.336;2022-08-19T12:51:35;14.93;;;8.60;;
19887;SDS011;10106;51.332;12.336;2022-08-19T12:54:01;9.97;;;7.17;;
19887;SDS011;10106;51.332;12.336;2022-08-19T12:56:29;16.40;;;8.90;;
19887;SDS011;10106;51.332;12.336;2022-08-19T12:58:57;12.77;;;7.90;;
19887;SDS011;10106;51.332;12.336;2022-08-19T13:01:25;10.60;;;7.97;;
19887;SDS011;10106;51.332;12.336;2022-08-19T13:03:51;10.33;;;7.90;;
19887;SDS011;10106;51.332;12.336;2022-08-19T13:06:19;13.00;;;9.20;;
19887;SDS011;10106;51.332;12.336;2022-08-19T13:08:45;16.00;;;8.80;;
19887;SDS011;10106;51.332;12.336;2022-08-19T13:11:18;13.30;;;8.60;;
19887;SDS011;10106;51.332;12.336;2022-08-19T13:13:46;10.97;;;7.97;;
19887;SDS011;10106;51.332;12.336;2022-08-19T13:16:13;16.63;;;9.70;;
19887;SDS011;10106;51.332;12.336;2022-08-19T13:18:40;13.83;;;9.07;;
19887;SDS011;10106;51.332;12.336;2022-08-19T13:21:08;15.13;;;9.50;;
19887;SDS011;10106;51.332;12.336;2022-08-19T13:23:37;14.83;;;8.20;;
19887;SDS011;10106;51.332;12.336;2022-08-19T13:26:03;13.90;;;8.47;;
19887;SDS011;10106;51.332;12.336;2022-08-19T13:28:31;18.97;;;8.00;;
19887;SDS011;10106;51.332;12.336;2022-08-19T13:31:17;17.60;;;8.97;;
19887;SDS011;10106;51.332;12.336;2022-08-19T13:34:02;13.03;;;10.00;;
19887;SDS011;10106;51.332;12.336;2022-08-19T13:36:33;13.20;;;9.30;;
19887;SDS011;10106;51.332;12.336;2022-08-19T13:39:08;13.20;;;9.73;;
19887;SDS011;10106;51.332;12.336;2022-08-19T13:41:35;15.23;;;9.90;;
19887;SDS011;10106;51.332;12.336;2022-08-19T13:44:02;11.73;;;8.73;;
19887;SDS011;10106;51.332;12.336;2022-08-19T13:46:28;13.17;;;9.83;;
19887;SDS011;10106;51.332;12.336;2022-08-19T13:48:55;16.13;;;8.90;;
19887;SDS011;10106;51.332;12.336;2022-08-19T13:51:21;16.20;;;10.30;;
19887;SDS011;10106;51.332;12.336;2022-08-19T13:53:47;18.57;;;8.30;;
19887;SDS011;10106;51.332;12.336;2022-08-19T13:56:15;14.87;;;9.27;;
19887;SDS011;10106;51.332;12.336;2022-08-19T13:58:45;14.27;;;9.40;;
19887;SDS011;10106;51.332;12.336;2022-08-19T14:01:11;13.63;;;8.90;;
19887;SDS011;10106;51.332;12.336;2022-08-19T14:03:37;13.33;;;9.27;;
19887;SDS011;10106;51.332;12.336;2022-08-19T14:06:03;16.17;;;8.90;;
19887;SDS011;10106;51.332;12.336;2022-08-19T14:08:29;15.10;;;8.63;;
19887;SDS011;10106;51.332;12.336;2022-08-19T14:10:57;11.93;;;8.60;;
19887;SDS011;10106;51.332;12.336;2022-08-19T14:13:23;14.10;;;8.60;;
19887;SDS011;10106;51.332;12.336;2022-08-19T14:15:49;14.23;;;8.70;;
19887;SDS011;10106;51.332;12.336;2022-08-19T14:18:16;14.67;;;9.60;;
19887;SDS011;10106;51.332;12.336;2022-08-19T14:20:43;13.63;;;8.47;;
19887;SDS011;10106;51.332;12.336;2022-08-19T14:23:09;12.97;;;8.17;;
19887;SDS011;10106;51.332;12.336;2022-08-19T14:25:35;14.40;;;8.73;;
19887;SDS011;10106;51.332;12.336;2022-08-19T14:28:01;12.53;;;7.90;;
19887;SDS011;10106;51.332;12.336;2022-08-19T14:30:28;20.00;;;8.80;;
19887;SDS011;10106;51.332;12.336;2022-08-19T14:33:10;12.87;;;8.00;;